createdAt,value
2018-03-17T00:01:37.169Z,18.52
2018-03-17T00:04:03.595Z,16.62
2018-03-17T00:06:29.966Z,14.85
2018-03-17T00:08:56.358Z,14.50
2018-03-17T00:11:22.745Z,14.95
2018-03-17T00:13:49.134Z,14.38
2018-03-17T00:16:15.543Z,13.57
2018-03-17T00:18:42.727Z,14.75
2018-03-17T00:21:09.104Z,17.05
2018-03-17T00:23:36.241Z,17.60
2018-03-17T00:26:02.634Z,13.80
2018-03-17T00:28:29.030Z,14.50
2018-03-17T00:30:55.402Z,15.52
2018-03-17T00:33:21.801Z,13.70
2018-03-17T00:35:48.173Z,20.33
2018-03-17T00:38:21.618Z,19.50
2018-03-17T00:40:48.019Z,14.60
2018-03-17T00:43:14.422Z,13.70
2018-03-17T00:45:41.538Z,14.07
2018-03-17T00:48:07.926Z,14.15
2018-03-17T00:50:34.307Z,12.52
2018-03-17T00:53:00.701Z,13.62
2018-03-17T00:55:27.110Z,14.55
2018-03-17T00:57:53.479Z,12.20
2018-03-17T01:00:19.910Z,12.75
2018-03-17T01:02:46.338Z,13.27
2018-03-17T01:05:12.789Z,14.02
2018-03-17T01:07:39.168Z,13.70
2018-03-17T01:10:06.334Z,14.65
2018-03-17T01:12:32.712Z,13.35
2018-03-17T01:14:59.119Z,13.82
2018-03-17T01:17:25.558Z,12.18
2018-03-17T01:19:51.966Z,13.75
2018-03-17T01:22:19.119Z,12.05
2018-03-17T01:24:46.227Z,19.15
2018-03-17T01:27:12.624Z,20.65
2018-03-17T01:29:39.014Z,19.87
2018-03-17T01:32:05.389Z,15.20
2018-03-17T01:34:31.786Z,14.30
2018-03-17T01:36:58.910Z,12.68
2018-03-17T01:39:25.298Z,11.80
2018-03-17T01:41:51.662Z,12.00
2018-03-17T01:44:18.090Z,13.25
2018-03-17T01:46:44.481Z,13.20
2018-03-17T01:49:11.617Z,13.88
2018-03-17T01:51:38.738Z,12.73
2018-03-17T01:54:17.286Z,11.70
2018-03-17T01:56:43.663Z,11.57
2018-03-17T01:59:10.059Z,11.82
2018-03-17T02:01:36.429Z,11.90
2018-03-17T02:04:02.866Z,11.87
2018-03-17T02:06:29.258Z,13.25
2018-03-17T02:08:55.657Z,12.93
2018-03-17T02:11:22.107Z,11.75
2018-03-17T02:13:48.537Z,14.50
2018-03-17T02:16:14.930Z,12.25
2018-03-17T02:18:41.370Z,12.90
2018-03-17T02:21:07.796Z,12.75
2018-03-17T02:23:34.187Z,15.75
2018-03-17T02:26:00.566Z,14.70
2018-03-17T02:28:26.968Z,13.10
2018-03-17T02:30:54.081Z,12.07
2018-03-17T02:33:20.479Z,12.98
2018-03-17T02:35:46.854Z,10.82
2018-03-17T02:38:13.260Z,10.63
2018-03-17T02:40:39.680Z,11.60
2018-03-17T02:43:06.071Z,12.18
2018-03-17T02:45:32.487Z,12.18
2018-03-17T02:47:58.854Z,12.20
2018-03-17T02:50:25.258Z,11.40
2018-03-17T02:52:51.633Z,11.52
2018-03-17T02:55:18.781Z,12.60
2018-03-17T02:57:45.925Z,13.43
2018-03-17T03:00:12.337Z,13.30
2018-03-17T03:02:38.730Z,14.07
2018-03-17T03:05:05.139Z,13.40
2018-03-17T03:07:32.281Z,13.10
2018-03-17T03:09:58.649Z,12.40
2018-03-17T03:12:25.073Z,12.50
2018-03-17T03:14:51.519Z,13.35
2018-03-17T03:17:17.919Z,11.73
2018-03-17T03:19:45.119Z,12.55
2018-03-17T03:22:11.531Z,11.80
2018-03-17T03:24:37.923Z,11.80
2018-03-17T03:27:04.290Z,12.23
2018-03-17T03:29:31.530Z,12.60
2018-03-17T03:31:58.654Z,13.38
2018-03-17T03:34:25.046Z,14.10
2018-03-17T03:36:51.545Z,12.90
2018-03-17T03:39:18.666Z,11.60
2018-03-17T03:41:45.079Z,11.73
2018-03-17T03:44:11.462Z,11.60
2018-03-17T03:46:38.625Z,14.18
2018-03-17T03:49:05.765Z,13.25
2018-03-17T03:51:32.130Z,12.80
2018-03-17T03:53:58.550Z,11.80
2018-03-17T03:56:25.661Z,13.30
2018-03-17T03:58:52.080Z,16.42
2018-03-17T04:01:18.490Z,17.13
2018-03-17T04:03:44.867Z,16.27
2018-03-17T04:06:11.254Z,17.27
2018-03-17T04:08:37.632Z,14.55
2018-03-17T04:11:04.011Z,14.00
2018-03-17T04:13:30.458Z,15.03
2018-03-17T04:15:56.959Z,15.63
2018-03-17T04:18:24.089Z,16.00
2018-03-17T04:20:50.934Z,16.27
2018-03-17T04:23:18.130Z,16.35
2018-03-17T04:25:44.526Z,14.50
2018-03-17T04:28:10.923Z,15.20
2018-03-17T04:30:37.297Z,15.10
2018-03-17T04:33:03.733Z,14.85
2018-03-17T04:35:30.262Z,16.07
2018-03-17T04:37:56.659Z,16.90
2018-03-17T04:40:23.053Z,16.50
2018-03-17T04:42:50.179Z,17.52
2018-03-17T04:45:16.578Z,16.50
2018-03-17T04:47:42.956Z,17.60
2018-03-17T04:50:10.093Z,17.17
2018-03-17T04:52:36.506Z,17.27
2018-03-17T04:55:02.905Z,17.95
2018-03-17T04:57:36.254Z,18.98
2018-03-17T05:00:02.764Z,19.50
2018-03-17T05:02:29.214Z,19.83
2018-03-17T05:04:55.613Z,19.33
2018-03-17T05:07:22.033Z,21.73
2018-03-17T05:09:49.165Z,21.67
2018-03-17T05:12:15.597Z,21.35
2018-03-17T05:14:41.998Z,20.15
2018-03-17T05:17:08.423Z,20.40
2018-03-17T05:19:34.859Z,21.45
2018-03-17T05:22:01.240Z,18.42
2018-03-17T05:24:28.379Z,16.08
2018-03-17T05:26:55.147Z,17.30
2018-03-17T05:29:22.304Z,18.48
2018-03-17T05:31:48.711Z,25.30
2018-03-17T05:34:15.118Z,24.63
2018-03-17T05:36:41.609Z,25.73
2018-03-17T05:39:08.061Z,26.60
2018-03-17T05:41:34.515Z,29.80
2018-03-17T05:44:00.889Z,32.17
2018-03-17T05:46:27.326Z,39.25
2018-03-17T05:48:53.697Z,44.42
2018-03-17T05:51:20.090Z,43.30
2018-03-17T05:53:46.485Z,48.05
2018-03-17T05:56:12.849Z,47.88
2018-03-17T05:58:39.350Z,51.85
2018-03-17T06:01:06.430Z,52.00
2018-03-17T06:03:32.831Z,53.80
2018-03-17T06:05:59.966Z,55.38
2018-03-17T06:08:26.338Z,49.67
2018-03-17T06:10:52.753Z,50.10
2018-03-17T06:13:19.177Z,46.63
2018-03-17T06:15:46.287Z,46.17
2018-03-17T06:18:13.482Z,47.65
2018-03-17T06:20:39.904Z,49.00
2018-03-17T06:23:06.288Z,44.58
2018-03-17T06:25:32.677Z,38.10
2018-03-17T06:27:59.169Z,34.30
2018-03-17T06:30:25.562Z,35.05
2018-03-17T06:32:51.946Z,44.40
2018-03-17T06:35:19.100Z,39.40
2018-03-17T06:37:46.227Z,39.28
2018-03-17T06:40:12.630Z,43.20
2018-03-17T06:42:39.004Z,48.85
2018-03-17T06:45:05.423Z,50.12
2018-03-17T06:47:31.826Z,52.80
2018-03-17T06:49:58.276Z,52.67
2018-03-17T06:52:24.678Z,52.33
2018-03-17T06:54:51.053Z,52.92
2018-03-17T06:57:17.442Z,48.30
2018-03-17T06:59:43.838Z,46.92
2018-03-17T07:02:10.221Z,50.78
2018-03-17T07:04:36.630Z,48.85
2018-03-17T07:07:03.766Z,47.62
2018-03-17T07:09:30.159Z,44.92
2018-03-17T07:11:56.538Z,46.25
2018-03-17T07:14:23.671Z,41.47
2018-03-17T07:16:50.043Z,38.85
2018-03-17T07:19:16.433Z,40.80
2018-03-17T07:21:42.919Z,39.90
2018-03-17T07:24:09.291Z,39.13
2018-03-17T07:26:35.711Z,38.33
2018-03-17T07:29:02.104Z,37.60
2018-03-17T07:31:28.503Z,37.67
2018-03-17T07:33:54.911Z,38.38
2018-03-17T07:36:21.369Z,39.28
2018-03-17T07:38:47.762Z,37.85
2018-03-17T07:41:14.232Z,39.13
2018-03-17T07:43:40.650Z,39.27
2018-03-17T07:46:07.055Z,35.42
2018-03-17T07:48:33.486Z,38.28
2018-03-17T07:50:59.893Z,41.10
2018-03-17T07:53:26.325Z,35.92
2018-03-17T07:55:52.727Z,33.05
2018-03-17T07:58:19.122Z,33.10
2018-03-17T08:00:45.547Z,33.47
2018-03-17T08:03:12.667Z,30.62
2018-03-17T08:05:39.072Z,31.08
2018-03-17T08:08:05.466Z,30.40
2018-03-17T08:10:32.607Z,30.45
2018-03-17T08:13:06.627Z,29.55
2018-03-17T08:15:33.810Z,29.15
2018-03-17T08:18:00.215Z,28.83
2018-03-17T08:20:27.395Z,29.23
2018-03-17T08:22:53.805Z,31.77
2018-03-17T08:25:20.935Z,29.65
2018-03-17T08:27:47.363Z,29.10
2018-03-17T08:30:13.821Z,26.50
2018-03-17T08:32:40.234Z,31.80
2018-03-17T08:35:06.647Z,31.98
2018-03-17T08:37:33.122Z,30.58
2018-03-17T08:40:00.296Z,31.25
2018-03-17T08:42:26.698Z,32.15
2018-03-17T08:44:53.117Z,31.42
2018-03-17T08:47:19.526Z,31.80
2018-03-17T08:49:45.902Z,24.52
2018-03-17T08:52:12.335Z,31.10
2018-03-17T08:54:39.527Z,29.95
2018-03-17T08:57:05.926Z,31.63
2018-03-17T08:59:39.341Z,30.90
2018-03-17T09:02:06.499Z,29.77
2018-03-17T09:04:32.906Z,29.40
2018-03-17T09:07:00.014Z,30.95
2018-03-17T09:09:26.402Z,29.90
2018-03-17T09:11:53.535Z,30.73
2018-03-17T09:14:19.931Z,30.05
2018-03-17T09:16:46.294Z,31.90
2018-03-17T09:19:12.723Z,31.90
2018-03-17T09:21:39.141Z,23.23
2018-03-17T09:24:05.586Z,20.62
2018-03-17T09:26:32.010Z,22.73
2018-03-17T09:28:58.431Z,25.35
2018-03-17T09:31:24.855Z,26.80
2018-03-17T09:33:51.243Z,24.17
2018-03-17T09:36:17.685Z,24.87
2018-03-17T09:38:44.059Z,20.92
2018-03-17T09:41:17.398Z,25.23
2018-03-17T09:43:43.786Z,33.58
2018-03-17T09:46:10.182Z,34.28
2018-03-17T09:48:36.570Z,35.03
2018-03-17T09:51:02.942Z,38.10
2018-03-17T09:53:30.087Z,36.33
2018-03-17T09:55:56.462Z,35.53
2018-03-17T09:58:22.887Z,37.28
2018-03-17T10:00:50.012Z,38.55
2018-03-17T10:03:17.175Z,39.00
2018-03-17T10:05:44.318Z,38.85
2018-03-17T10:08:10.696Z,39.78
2018-03-17T10:10:37.101Z,39.95
2018-03-17T10:13:04.250Z,40.95
2018-03-17T10:15:31.405Z,38.22
2018-03-17T10:17:58.528Z,32.85
2018-03-17T10:20:24.938Z,36.28
2018-03-17T10:22:51.345Z,36.15
2018-03-17T10:25:17.775Z,40.72
2018-03-17T10:27:44.170Z,43.35
2018-03-17T10:30:10.610Z,36.22
2018-03-17T10:32:37.013Z,43.10
2018-03-17T10:35:03.487Z,44.85
2018-03-17T10:37:29.862Z,44.10
2018-03-17T10:39:56.267Z,39.15
2018-03-17T10:42:23.440Z,38.40
2018-03-17T10:44:49.900Z,40.10
2018-03-17T10:47:16.278Z,40.03
2018-03-17T10:49:43.427Z,37.13
2018-03-17T10:52:10.593Z,37.53
2018-03-17T10:54:36.994Z,38.03
2018-03-17T10:57:03.376Z,34.90
2018-03-17T10:59:29.831Z,32.43
2018-03-17T11:02:01.314Z,31.95
2018-03-17T11:04:27.682Z,29.37
2018-03-17T11:06:54.875Z,28.95
2018-03-17T11:09:21.252Z,29.73
2018-03-17T11:11:48.440Z,32.55
2018-03-17T11:14:14.808Z,29.08
2018-03-17T11:16:41.203Z,31.52
2018-03-17T11:19:07.602Z,30.48
2018-03-17T11:21:33.961Z,27.40
2018-03-17T11:24:00.353Z,30.40
2018-03-17T11:26:27.475Z,28.83
2018-03-17T11:28:53.878Z,27.37
2018-03-17T11:31:20.267Z,28.87
2018-03-17T11:33:46.662Z,24.17
2018-03-17T11:36:13.066Z,25.95
2018-03-17T11:38:40.225Z,27.30
2018-03-17T11:41:07.401Z,27.85
2018-03-17T11:43:33.770Z,27.73
2018-03-17T11:46:00.170Z,36.58
2018-03-17T11:48:26.593Z,39.67
2018-03-17T11:50:53.085Z,29.10
2018-03-17T11:53:19.538Z,30.02
2018-03-17T11:55:46.670Z,33.17
2018-03-17T11:58:13.835Z,35.37
2018-03-17T12:00:40.277Z,31.45
2018-03-17T12:03:07.442Z,34.83
2018-03-17T12:05:34.580Z,28.08
2018-03-17T12:08:01.734Z,27.17
2018-03-17T12:10:28.890Z,33.72
2018-03-17T12:12:56.042Z,33.13
2018-03-17T12:15:22.479Z,30.30
2018-03-17T12:17:49.674Z,33.20
2018-03-17T12:20:16.106Z,43.47
2018-03-17T12:22:42.505Z,30.48
2018-03-17T12:25:09.738Z,28.20
2018-03-17T12:27:36.140Z,28.27
2018-03-17T12:30:02.640Z,24.23
2018-03-17T12:32:29.155Z,23.95
2018-03-17T12:34:56.334Z,28.77
2018-03-17T12:37:22.758Z,27.60
2018-03-17T12:39:49.131Z,29.17
2018-03-17T12:42:15.555Z,27.73
2018-03-17T12:44:41.957Z,25.15
2018-03-17T12:47:08.357Z,22.25
2018-03-17T12:49:34.794Z,23.50
2018-03-17T12:52:01.190Z,22.60
2018-03-17T12:54:27.584Z,23.17
2018-03-17T12:56:54.730Z,23.08
2018-03-17T12:59:21.899Z,22.90
2018-03-17T13:01:48.307Z,23.57
2018-03-17T13:04:14.745Z,22.25
2018-03-17T13:06:41.970Z,22.75
2018-03-17T13:09:08.390Z,21.55
2018-03-17T13:11:34.823Z,23.02
2018-03-17T13:14:01.210Z,22.67
2018-03-17T13:16:28.382Z,20.58
2018-03-17T13:18:54.810Z,20.52
2018-03-17T13:21:21.247Z,21.42
2018-03-17T13:23:47.723Z,21.80
2018-03-17T13:26:14.189Z,22.00
2018-03-17T13:28:40.602Z,21.27
2018-03-17T13:31:07.004Z,22.15
2018-03-17T13:33:33.449Z,22.17
2018-03-17T13:36:12.176Z,19.98
2018-03-17T13:38:38.587Z,22.30
2018-03-17T13:41:05.067Z,22.70
2018-03-17T13:43:31.488Z,23.05
2018-03-17T13:45:57.910Z,21.33
2018-03-17T13:48:24.389Z,21.63
2018-03-17T13:50:51.620Z,21.83
2018-03-17T13:53:18.075Z,24.58
2018-03-17T13:55:44.482Z,22.73
2018-03-17T13:58:10.908Z,20.62
2018-03-17T14:00:37.302Z,24.25
2018-03-17T14:03:03.734Z,24.70
2018-03-17T14:05:30.902Z,23.90
2018-03-17T14:07:57.337Z,22.70
2018-03-17T14:10:23.740Z,23.75
2018-03-17T14:12:50.896Z,21.23
2018-03-17T14:15:18.037Z,20.45
2018-03-17T14:17:45.206Z,20.17
2018-03-17T14:20:12.380Z,19.65
2018-03-17T14:22:38.789Z,22.00
2018-03-17T14:25:05.972Z,19.98
2018-03-17T14:27:32.377Z,21.30
2018-03-17T14:29:59.595Z,22.13
2018-03-17T14:32:26.025Z,22.80
2018-03-17T14:34:52.470Z,23.62
2018-03-17T14:37:18.856Z,22.80
2018-03-17T14:39:45.309Z,21.85
2018-03-17T14:42:11.722Z,23.90
2018-03-17T14:44:38.152Z,22.15
2018-03-17T14:47:04.535Z,20.25
2018-03-17T14:49:30.941Z,21.65
2018-03-17T14:51:57.336Z,22.20
2018-03-17T14:54:24.498Z,23.33
2018-03-17T14:56:51.648Z,21.60
2018-03-17T14:59:18.821Z,22.50
2018-03-17T15:01:45.302Z,20.83
2018-03-17T15:04:11.682Z,23.27
2018-03-17T15:06:38.115Z,24.75
2018-03-17T15:09:04.554Z,22.53
2018-03-17T15:11:31.038Z,24.60
2018-03-17T15:13:57.449Z,22.60
2018-03-17T15:16:23.893Z,24.37
2018-03-17T15:18:50.281Z,22.42
2018-03-17T15:21:16.670Z,23.50
2018-03-17T15:23:43.079Z,25.55
2018-03-17T15:26:09.470Z,22.65
2018-03-17T15:28:36.640Z,23.10
2018-03-17T15:31:03.067Z,23.05
2018-03-17T15:33:29.466Z,21.40
2018-03-17T15:35:55.892Z,21.95
2018-03-17T15:38:22.334Z,20.67
2018-03-17T15:40:48.747Z,21.95
2018-03-17T15:43:15.184Z,21.83
2018-03-17T15:45:41.630Z,22.08
2018-03-17T15:48:08.065Z,19.67
2018-03-17T15:50:34.539Z,19.80
2018-03-17T15:53:00.941Z,19.27
2018-03-17T15:55:28.085Z,20.55
2018-03-17T15:57:54.540Z,21.02
2018-03-17T16:00:21.706Z,21.50
2018-03-17T16:02:48.860Z,23.92
2018-03-17T16:05:16.007Z,23.30
2018-03-17T16:07:43.155Z,22.73
2018-03-17T16:10:10.290Z,22.83
2018-03-17T16:12:36.661Z,21.55
2018-03-17T16:15:03.133Z,23.50
2018-03-17T16:17:29.510Z,22.50
2018-03-17T16:19:56.659Z,20.23
2018-03-17T16:22:23.831Z,21.67
2018-03-17T16:24:50.226Z,23.70
2018-03-17T16:27:16.642Z,22.92
2018-03-17T16:29:43.051Z,24.27
2018-03-17T16:32:09.505Z,24.10
2018-03-17T16:34:35.870Z,23.60
2018-03-17T16:37:02.302Z,24.15
2018-03-17T16:39:28.739Z,22.50
2018-03-17T16:41:55.862Z,22.67
2018-03-17T16:44:22.282Z,22.02
2018-03-17T16:46:48.790Z,22.42
2018-03-17T16:49:15.223Z,23.90
2018-03-17T16:51:42.338Z,24.33
2018-03-17T16:54:09.526Z,24.90
2018-03-17T16:56:36.664Z,26.00
2018-03-17T16:59:03.822Z,23.80
2018-03-17T17:01:31.018Z,22.30
2018-03-17T17:03:57.415Z,22.58
2018-03-17T17:06:31.671Z,22.85
2018-03-17T17:08:58.070Z,21.48
2018-03-17T17:11:24.484Z,21.98
2018-03-17T17:13:51.751Z,21.15
2018-03-17T17:16:18.879Z,22.15
2018-03-17T17:18:45.274Z,21.55
2018-03-17T17:21:11.653Z,21.20
2018-03-17T17:23:38.072Z,21.60
2018-03-17T17:26:04.482Z,21.90
2018-03-17T17:28:30.899Z,22.50
2018-03-17T17:30:57.296Z,22.30
2018-03-17T17:33:24.468Z,23.50
2018-03-17T17:35:50.866Z,21.95
2018-03-17T17:38:17.279Z,21.90
2018-03-17T17:40:43.674Z,23.30
2018-03-17T17:43:10.061Z,20.55
2018-03-17T17:45:36.491Z,23.60
2018-03-17T17:48:02.890Z,22.83
2018-03-17T17:50:29.330Z,21.45
2018-03-17T17:52:55.723Z,21.77
2018-03-17T17:55:22.861Z,22.00
2018-03-17T17:57:50.009Z,21.57
2018-03-17T18:00:16.408Z,21.80
2018-03-17T18:02:42.821Z,22.13
2018-03-17T18:05:09.192Z,23.05
2018-03-17T18:07:35.606Z,22.42
2018-03-17T18:10:02.034Z,21.67
2018-03-17T18:12:28.464Z,23.07
2018-03-17T18:14:54.915Z,22.45
2018-03-17T18:17:21.258Z,24.23
2018-03-17T18:19:47.651Z,23.98
2018-03-17T18:22:14.023Z,21.85
2018-03-17T18:24:40.490Z,22.35
2018-03-17T18:27:06.881Z,24.67
2018-03-17T18:29:33.257Z,23.70
2018-03-17T18:31:59.722Z,21.08
2018-03-17T18:34:26.119Z,23.95
2018-03-17T18:36:52.531Z,23.58
2018-03-17T18:39:19.002Z,25.12
2018-03-17T18:41:46.219Z,22.83
2018-03-17T18:44:12.752Z,25.70
2018-03-17T18:46:39.128Z,26.65
2018-03-17T18:49:06.302Z,27.45
2018-03-17T18:51:32.749Z,24.12
2018-03-17T18:53:59.225Z,24.10
2018-03-17T18:56:25.665Z,24.75
2018-03-17T18:58:52.118Z,23.48
2018-03-17T19:01:18.574Z,25.37
2018-03-17T19:03:45.022Z,27.70
2018-03-17T19:06:11.436Z,26.92
2018-03-17T19:08:38.582Z,25.10
2018-03-17T19:11:05.767Z,25.30
2018-03-17T19:13:32.174Z,25.02
2018-03-17T19:15:59.366Z,27.25
2018-03-17T19:18:25.771Z,26.17
2018-03-17T19:20:52.253Z,25.50
2018-03-17T19:23:18.656Z,26.00
2018-03-17T19:25:45.134Z,25.05
2018-03-17T19:28:11.570Z,27.40
2018-03-17T19:30:37.962Z,25.23
2018-03-17T19:33:04.453Z,28.67
2018-03-17T19:35:31.635Z,27.75
2018-03-17T19:37:58.100Z,27.30
2018-03-17T19:40:24.491Z,28.25
2018-03-17T19:42:51.650Z,25.95
2018-03-17T19:45:18.113Z,26.60
2018-03-17T19:47:44.511Z,26.35
2018-03-17T19:50:11.675Z,20.92
2018-03-17T19:52:38.074Z,21.95
2018-03-17T19:55:04.536Z,22.58
2018-03-17T19:57:30.921Z,20.48
2018-03-17T19:59:57.339Z,21.73
2018-03-17T20:02:23.832Z,23.00
2018-03-17T20:04:50.972Z,23.38
2018-03-17T20:07:17.421Z,22.08
2018-03-17T20:09:44.590Z,22.48
2018-03-17T20:12:11.018Z,22.35
2018-03-17T20:14:37.426Z,21.00
2018-03-17T20:17:03.841Z,22.35
2018-03-17T20:19:30.317Z,22.35
2018-03-17T20:21:57.498Z,21.60
2018-03-17T20:24:23.897Z,22.90
2018-03-17T20:26:51.010Z,22.65
2018-03-17T20:29:17.410Z,21.03
2018-03-17T20:31:43.801Z,21.27
2018-03-17T20:34:10.971Z,23.17
2018-03-17T20:36:38.134Z,23.92
2018-03-17T20:39:04.621Z,22.87
2018-03-17T20:41:31.031Z,24.17
2018-03-17T20:43:57.403Z,24.00
2018-03-17T20:46:23.837Z,24.77
2018-03-17T20:48:50.215Z,24.17
2018-03-17T20:51:16.610Z,25.92
2018-03-17T20:53:43.046Z,27.48
2018-03-17T20:56:09.478Z,28.05
2018-03-17T20:58:35.851Z,27.62
2018-03-17T21:01:02.266Z,27.65
2018-03-17T21:03:29.384Z,25.25
2018-03-17T21:05:55.764Z,27.20
2018-03-17T21:08:22.184Z,27.23
2018-03-17T21:10:48.577Z,26.90
2018-03-17T21:13:14.985Z,27.80
2018-03-17T21:15:41.355Z,28.35
2018-03-17T21:18:07.841Z,28.80
2018-03-17T21:20:34.219Z,28.58
2018-03-17T21:23:00.633Z,28.60
2018-03-17T21:25:27.058Z,29.00
2018-03-17T21:27:53.499Z,28.75
2018-03-17T21:30:19.870Z,26.50
2018-03-17T21:32:46.298Z,27.35
2018-03-17T21:35:12.712Z,23.90
2018-03-17T21:37:39.131Z,29.15
2018-03-17T21:40:05.515Z,27.90
2018-03-17T21:42:32.679Z,29.33
2018-03-17T21:44:59.829Z,28.60
2018-03-17T21:47:26.937Z,29.23
2018-03-17T21:49:53.362Z,29.52
2018-03-17T21:52:19.743Z,30.23
2018-03-17T21:54:46.887Z,28.50
2018-03-17T21:57:14.037Z,26.65
2018-03-17T21:59:40.439Z,28.62
2018-03-17T22:02:06.834Z,28.08
2018-03-17T22:04:33.226Z,27.35
2018-03-17T22:06:59.634Z,30.83
2018-03-17T22:09:26.018Z,28.33
2018-03-17T22:11:53.150Z,26.45
2018-03-17T22:14:20.274Z,30.30
2018-03-17T22:16:46.683Z,27.13
2018-03-17T22:19:13.077Z,27.87
2018-03-17T22:21:40.211Z,25.25
2018-03-17T22:24:07.374Z,28.25
2018-03-17T22:26:33.832Z,27.00
2018-03-17T22:29:00.355Z,27.08
2018-03-17T22:31:27.478Z,28.38
2018-03-17T22:33:53.890Z,28.70
2018-03-17T22:36:20.319Z,32.00
2018-03-17T22:38:46.702Z,28.08
2018-03-17T22:41:13.109Z,30.63
2018-03-17T22:43:39.479Z,27.98
2018-03-17T22:46:06.621Z,30.73
2018-03-17T22:48:32.998Z,27.87
2018-03-17T22:50:59.435Z,28.42
2018-03-17T22:53:25.856Z,27.20
2018-03-17T22:55:52.222Z,29.77
2018-03-17T22:58:18.618Z,27.15
2018-03-17T23:00:45.025Z,27.50
2018-03-17T23:03:12.194Z,28.00
2018-03-17T23:05:39.341Z,28.10
2018-03-17T23:08:06.457Z,28.70
2018-03-17T23:10:32.846Z,30.70
2018-03-17T23:12:59.239Z,28.33
2018-03-17T23:15:25.657Z,28.80
2018-03-17T23:17:52.043Z,25.67
2018-03-17T23:20:18.471Z,29.50
2018-03-17T23:22:44.905Z,31.95
2018-03-17T23:25:11.273Z,30.80
2018-03-17T23:27:37.673Z,28.12
2018-03-17T23:30:04.114Z,31.77
2018-03-17T23:32:30.558Z,30.90
2018-03-17T23:34:56.957Z,31.90
2018-03-17T23:37:24.102Z,31.48
2018-03-17T23:39:51.305Z,31.45
2018-03-17T23:42:17.743Z,32.80
2018-03-17T23:44:44.194Z,30.85
2018-03-17T23:47:10.660Z,32.80
2018-03-17T23:49:37.091Z,32.60
2018-03-17T23:52:03.562Z,31.80
2018-03-17T23:54:30.022Z,31.55
2018-03-17T23:56:56.439Z,30.65
2018-03-17T23:59:22.850Z,31.98
